createdAt,value
2023-01-08T00:00:54.511Z,0
2023-01-08T00:02:01.239Z,0
2023-01-08T00:03:07.877Z,0
2023-01-08T00:04:14.611Z,0
2023-01-08T00:05:21.293Z,0
2023-01-08T00:06:27.982Z,0
2023-01-08T00:07:34.698Z,0
2023-01-08T00:08:41.387Z,0
2023-01-08T00:09:48.084Z,0
2023-01-08T00:10:54.791Z,0
2023-01-08T00:12:01.494Z,0
2023-01-08T00:13:08.699Z,0
2023-01-08T00:14:46.732Z,0
2023-01-08T00:15:53.200Z,0
2023-01-08T00:16:59.706Z,0
2023-01-08T00:18:06.192Z,0
2023-01-08T00:19:12.697Z,0
2023-01-08T00:20:19.186Z,0
2023-01-08T00:21:25.691Z,0
2023-01-08T00:22:32.191Z,0
2023-01-08T00:23:38.709Z,0
2023-01-08T00:24:45.186Z,0
2023-01-08T00:25:51.689Z,0
2023-01-08T00:26:58.179Z,0
2023-01-08T00:28:04.673Z,0
2023-01-08T00:29:11.180Z,0
2023-01-08T00:30:17.668Z,0
2023-01-08T00:31:24.167Z,0
2023-01-08T00:32:30.674Z,0
2023-01-08T00:33:37.209Z,0
2023-01-08T00:34:43.672Z,0
2023-01-08T00:35:50.170Z,0
2023-01-08T00:36:56.668Z,0
2023-01-08T00:38:03.170Z,0
2023-01-08T00:39:09.659Z,0
2023-01-08T00:40:16.151Z,0
2023-01-08T00:41:22.664Z,0
2023-01-08T00:42:29.390Z,0
2023-01-08T00:43:36.081Z,0
2023-01-08T00:44:42.794Z,0
2023-01-08T00:45:49.490Z,0
2023-01-08T00:46:56.194Z,0
2023-01-08T00:48:02.896Z,0
2023-01-08T00:49:09.596Z,0
2023-01-08T00:50:16.297Z,0
2023-01-08T00:51:22.996Z,0
2023-01-08T00:52:29.700Z,0
2023-01-08T00:53:36.403Z,0
2023-01-08T00:54:43.095Z,0
2023-01-08T00:55:49.799Z,0
2023-01-08T00:59:07.971Z,0
2023-01-08T01:00:43.214Z,0
2023-01-08T01:01:49.904Z,0
2023-01-08T01:02:56.641Z,0
2023-01-08T01:04:03.306Z,0
2023-01-08T01:05:10.015Z,0
2023-01-08T01:06:16.712Z,0
2023-01-08T01:07:23.405Z,0
2023-01-08T01:08:30.113Z,0
2023-01-08T01:09:36.811Z,0
2023-01-08T01:10:43.506Z,0
2023-01-08T01:11:50.218Z,0
2023-01-08T01:12:56.919Z,0
2023-01-08T01:14:03.622Z,0
2023-01-08T01:15:10.327Z,0
2023-01-08T01:16:17.022Z,0
2023-01-08T01:17:23.716Z,0
2023-01-08T01:18:30.427Z,0
2023-01-08T01:19:37.119Z,0
2023-01-08T01:20:43.820Z,0
2023-01-08T01:21:50.518Z,0
2023-01-08T01:22:57.227Z,0
2023-01-08T01:24:03.929Z,0
2023-01-08T01:25:10.622Z,0
2023-01-08T01:26:17.339Z,0
2023-01-08T01:27:24.034Z,0
2023-01-08T01:28:56.918Z,0
2023-01-08T01:30:34.914Z,0
2023-01-08T01:31:41.446Z,0
2023-01-08T01:32:47.912Z,0
2023-01-08T01:33:54.405Z,0
2023-01-08T01:35:00.914Z,0
2023-01-08T01:36:07.430Z,0
2023-01-08T01:37:13.899Z,0
2023-01-08T01:38:20.402Z,0
2023-01-08T01:39:26.913Z,0
2023-01-08T01:40:33.403Z,0
2023-01-08T01:41:39.903Z,0
2023-01-08T01:42:46.394Z,0
2023-01-08T01:43:52.892Z,0
2023-01-08T01:44:59.394Z,0
2023-01-08T01:46:05.896Z,0
2023-01-08T01:47:12.392Z,0
2023-01-08T01:48:18.892Z,0
2023-01-08T01:49:25.387Z,0
2023-01-08T01:50:31.888Z,0
2023-01-08T01:51:38.417Z,0
2023-01-08T01:52:44.880Z,0
2023-01-08T01:53:51.377Z,0
2023-01-08T01:54:57.897Z,0
2023-01-08T01:56:04.383Z,0
2023-01-08T01:57:10.892Z,0
2023-01-08T01:58:17.619Z,0
2023-01-08T01:59:24.314Z,0
2023-01-08T02:00:31.010Z,0
2023-01-08T02:01:37.726Z,0
2023-01-08T02:02:44.428Z,0
2023-01-08T02:03:51.122Z,0
2023-01-08T02:04:57.832Z,0
2023-01-08T02:06:04.568Z,0
2023-01-08T02:07:11.228Z,0
2023-01-08T02:08:17.934Z,0
2023-01-08T02:09:24.637Z,0
2023-01-08T02:10:31.335Z,0
2023-01-08T02:11:38.040Z,0
2023-01-08T02:14:56.216Z,0
2023-01-08T02:16:31.443Z,0
2023-01-08T02:17:38.147Z,0
2023-01-08T02:18:44.839Z,0
2023-01-08T02:19:51.552Z,0
2023-01-08T02:20:58.250Z,0
2023-01-08T02:22:04.957Z,0
2023-01-08T02:23:11.655Z,0
2023-01-08T02:24:18.355Z,0
2023-01-08T02:25:25.096Z,0
2023-01-08T02:26:31.774Z,0
2023-01-08T02:27:38.469Z,0
2023-01-08T02:28:45.172Z,0
2023-01-08T02:29:51.867Z,0
2023-01-08T02:30:58.573Z,0
2023-01-08T02:32:05.276Z,0
2023-01-08T02:33:11.988Z,0
2023-01-08T02:34:18.683Z,0
2023-01-08T02:35:25.376Z,0
2023-01-08T02:36:32.086Z,0
2023-01-08T02:37:38.774Z,0
2023-01-08T02:38:45.480Z,0
2023-01-08T02:39:52.192Z,0
2023-01-08T02:40:58.893Z,0
2023-01-08T02:42:05.601Z,0
2023-01-08T02:43:12.303Z,0
2023-01-08T02:44:46.671Z,0
2023-01-08T02:46:24.894Z,0
2023-01-08T02:47:31.602Z,0
2023-01-08T02:48:38.282Z,0
2023-01-08T02:49:45.019Z,0
2023-01-08T02:50:51.696Z,0
2023-01-08T02:51:58.411Z,0
2023-01-08T02:53:05.130Z,0
2023-01-08T02:54:11.809Z,0
2023-01-08T02:55:18.515Z,0
2023-01-08T02:56:25.213Z,0
2023-01-08T02:57:31.912Z,0
2023-01-08T02:58:38.616Z,0
2023-01-08T02:59:45.314Z,0
2023-01-08T03:00:52.010Z,0
2023-01-08T03:01:58.719Z,0
2023-01-08T03:03:05.430Z,0
2023-01-08T03:04:12.137Z,0
2023-01-08T03:05:18.835Z,0
2023-01-08T03:06:25.533Z,0
2023-01-08T03:07:32.239Z,0
2023-01-08T03:08:38.936Z,0
2023-01-08T03:09:45.649Z,0
2023-01-08T03:10:52.343Z,0
2023-01-08T03:11:59.043Z,0
2023-01-08T03:13:05.749Z,0
2023-01-08T03:15:17.985Z,0
2023-01-08T03:16:56.215Z,0
2023-01-08T03:18:02.914Z,0
2023-01-08T03:19:09.618Z,0
2023-01-08T03:20:16.324Z,0
2023-01-08T03:21:23.023Z,0
2023-01-08T03:22:29.725Z,0
2023-01-08T03:23:36.427Z,0
2023-01-08T03:24:43.129Z,0
2023-01-08T03:25:49.837Z,0
2023-01-08T03:26:56.535Z,0
2023-01-08T03:28:03.238Z,0
2023-01-08T03:29:09.944Z,0
2023-01-08T03:30:16.644Z,0
2023-01-08T03:31:23.342Z,0
2023-01-08T03:32:30.063Z,0
2023-01-08T03:33:36.752Z,0
2023-01-08T03:34:43.452Z,0
2023-01-08T03:35:50.151Z,0
2023-01-08T03:36:56.855Z,0
2023-01-08T03:38:03.564Z,0
2023-01-08T03:39:10.257Z,0
2023-01-08T03:40:16.970Z,0
2023-01-08T03:41:23.680Z,0
2023-01-08T03:42:30.392Z,0
2023-01-08T03:43:37.071Z,0
2023-01-08T03:45:10.875Z,0
2023-01-08T03:46:16.911Z,0
2023-01-08T03:47:23.401Z,0
2023-01-08T03:48:29.917Z,0
2023-01-08T03:49:36.399Z,0
2023-01-08T03:50:42.882Z,0
2023-01-08T03:51:49.405Z,0
2023-01-08T03:52:55.888Z,0
2023-01-08T03:54:02.401Z,0
2023-01-08T03:55:08.885Z,0
2023-01-08T03:56:15.405Z,0
2023-01-08T03:57:21.894Z,0
2023-01-08T03:58:28.382Z,0
2023-01-08T03:59:34.888Z,0
2023-01-08T04:00:41.388Z,0
2023-01-08T04:01:47.890Z,0
2023-01-08T04:02:54.405Z,0
2023-01-08T04:04:00.884Z,0
2023-01-08T04:05:07.384Z,0
2023-01-08T04:06:13.878Z,0
2023-01-08T04:07:20.383Z,0
2023-01-08T04:08:26.878Z,0
2023-01-08T04:09:33.386Z,0
2023-01-08T04:10:39.882Z,0
2023-01-08T04:11:46.385Z,0
2023-01-08T04:12:52.882Z,0
2023-01-08T04:13:59.624Z,0
2023-01-08T04:15:06.317Z,0
2023-01-08T04:16:13.024Z,0
2023-01-08T04:17:19.721Z,0
2023-01-08T04:18:26.450Z,0
2023-01-08T04:19:33.129Z,0
2023-01-08T04:20:39.836Z,0
2023-01-08T04:21:46.537Z,0
2023-01-08T04:22:53.238Z,0
2023-01-08T04:23:59.953Z,0
2023-01-08T04:25:06.648Z,0
2023-01-08T04:26:13.344Z,0
2023-01-08T04:27:20.058Z,0
2023-01-08T04:28:27.253Z,0
2023-01-08T04:30:05.257Z,0
2023-01-08T04:31:11.765Z,0
2023-01-08T04:32:18.261Z,0
2023-01-08T04:33:24.781Z,0
2023-01-08T04:34:31.266Z,0
2023-01-08T04:35:37.754Z,0
2023-01-08T04:36:44.268Z,0
2023-01-08T04:37:50.757Z,0
2023-01-08T04:38:57.264Z,0
2023-01-08T04:40:03.756Z,0
2023-01-08T04:42:16.752Z,0
2023-01-08T04:43:23.244Z,0
2023-01-08T04:44:29.754Z,0
2023-01-08T04:45:36.243Z,0
2023-01-08T04:46:42.754Z,0
2023-01-08T04:47:49.259Z,0
2023-01-08T04:48:55.760Z,0
2023-01-08T04:50:02.250Z,0
2023-01-08T04:51:08.754Z,0
2023-01-08T04:52:15.251Z,0
2023-01-08T04:53:21.738Z,0
2023-01-08T04:54:28.239Z,0
2023-01-08T04:55:34.741Z,0
2023-01-08T04:56:41.233Z,0
2023-01-08T04:57:47.977Z,0
2023-01-08T04:58:54.684Z,0
2023-01-08T05:00:01.395Z,0
2023-01-08T05:01:08.152Z,0
2023-01-08T05:02:14.790Z,0
2023-01-08T05:03:21.503Z,0
2023-01-08T05:04:28.205Z,0
2023-01-08T05:05:34.912Z,0
2023-01-08T05:06:41.607Z,0
2023-01-08T05:07:48.304Z,0
2023-01-08T05:08:55.006Z,0
2023-01-08T05:10:01.710Z,0
2023-01-08T05:11:08.417Z,0
2023-01-08T05:14:26.591Z,0
2023-01-08T05:16:01.812Z,0
2023-01-08T05:17:08.520Z,0
2023-01-08T05:18:15.220Z,0
2023-01-08T05:19:21.935Z,0
2023-01-08T05:20:28.634Z,0
2023-01-08T05:21:35.325Z,0
2023-01-08T05:22:42.040Z,0
2023-01-08T05:23:48.734Z,0
2023-01-08T05:24:55.437Z,0
2023-01-08T05:26:02.155Z,0
2023-01-08T05:27:08.850Z,0
2023-01-08T05:28:15.546Z,0
2023-01-08T05:29:22.249Z,0
2023-01-08T05:30:28.964Z,0
2023-01-08T05:31:35.649Z,0
2023-01-08T05:32:42.359Z,0
2023-01-08T05:33:49.078Z,0
2023-01-08T05:34:55.761Z,0
2023-01-08T05:36:02.468Z,0
2023-01-08T05:37:09.177Z,0
2023-01-08T05:38:15.887Z,0
2023-01-08T05:39:22.614Z,0
2023-01-08T05:40:29.284Z,0
2023-01-08T05:41:35.974Z,0
2023-01-08T05:42:42.690Z,0
2023-01-08T05:44:15.870Z,0
2023-01-08T05:45:54.602Z,0
2023-01-08T05:47:32.836Z,0
2023-01-08T05:48:39.537Z,0
2023-01-08T05:49:46.239Z,0
2023-01-08T05:50:52.949Z,0
2023-01-08T05:51:59.650Z,0
2023-01-08T05:53:06.355Z,0
2023-01-08T05:54:13.055Z,0
2023-01-08T05:55:19.768Z,0
2023-01-08T05:56:26.469Z,0
2023-01-08T05:57:33.163Z,0
2023-01-08T05:58:39.863Z,0
2023-01-08T05:59:46.585Z,0
2023-01-08T06:00:53.283Z,0
2023-01-08T06:01:59.968Z,0
2023-01-08T06:03:06.682Z,0
2023-01-08T06:04:13.375Z,0
2023-01-08T06:05:20.079Z,0
2023-01-08T06:06:26.815Z,0
2023-01-08T06:07:33.485Z,0
2023-01-08T06:08:40.199Z,0
2023-01-08T06:09:46.891Z,0
2023-01-08T06:10:53.605Z,0
2023-01-08T06:12:00.301Z,0
2023-01-08T06:13:07.007Z,0
2023-01-08T06:14:13.707Z,0
2023-01-08T06:16:25.945Z,0
2023-01-08T06:18:01.015Z,0
2023-01-08T06:19:08.228Z,0
2023-01-08T06:20:46.952Z,0
2023-01-08T06:22:25.690Z,0
2023-01-08T06:24:03.935Z,0
2023-01-08T06:25:10.654Z,0
2023-01-08T06:26:17.333Z,0
2023-01-08T06:27:24.033Z,0
2023-01-08T06:28:30.730Z,0
2023-01-08T06:29:37.436Z,0
2023-01-08T06:30:44.163Z,0
2023-01-08T06:31:50.833Z,0
2023-01-08T06:32:57.544Z,0
2023-01-08T06:34:04.240Z,0
2023-01-08T06:35:10.958Z,0
2023-01-08T06:36:17.643Z,0
2023-01-08T06:37:24.364Z,0
2023-01-08T06:38:31.057Z,0
2023-01-08T06:39:37.758Z,0
2023-01-08T06:40:44.465Z,0
2023-01-08T06:41:51.159Z,0
2023-01-08T06:42:57.872Z,0
2023-01-08T06:44:04.565Z,0
2023-01-08T06:45:11.271Z,0
2023-01-08T06:46:17.972Z,0
2023-01-08T06:47:24.669Z,0
2023-01-08T06:48:31.374Z,0
2023-01-08T06:49:38.067Z,0
2023-01-08T06:50:44.782Z,0
2023-01-08T06:52:57.018Z,0
2023-01-08T06:54:03.330Z,0
2023-01-08T06:55:09.977Z,0
2023-01-08T06:56:16.679Z,0
2023-01-08T06:57:23.385Z,0
2023-01-08T06:58:30.107Z,0
2023-01-08T06:59:36.789Z,0
2023-01-08T07:00:43.483Z,0
2023-01-08T07:01:50.207Z,0
2023-01-08T07:02:56.900Z,0
2023-01-08T07:04:03.601Z,0
2023-01-08T07:05:10.297Z,0
2023-01-08T07:06:16.987Z,0
2023-01-08T07:07:23.704Z,0
2023-01-08T07:08:30.408Z,0
2023-01-08T07:09:37.108Z,0
2023-01-08T07:10:43.836Z,0
2023-01-08T07:11:50.508Z,0
2023-01-08T07:12:57.208Z,0
2023-01-08T07:14:04.001Z,0
2023-01-08T07:15:10.616Z,0
2023-01-08T07:16:17.335Z,0
2023-01-08T07:17:24.019Z,0
2023-01-08T07:18:30.742Z,0
2023-01-08T07:19:37.483Z,0
2023-01-08T07:20:44.128Z,0
2023-01-08T07:22:18.191Z,0
2023-01-08T07:23:56.184Z,0
2023-01-08T07:25:02.752Z,0
2023-01-08T07:26:09.181Z,0
2023-01-08T07:27:15.719Z,0
2023-01-08T07:28:22.190Z,0
2023-01-08T07:29:28.690Z,0
2023-01-08T07:30:35.183Z,0
2023-01-08T07:31:41.688Z,0
2023-01-08T07:32:48.193Z,0
2023-01-08T07:33:54.677Z,0
2023-01-08T07:35:01.229Z,0
2023-01-08T07:36:07.686Z,0
2023-01-08T07:37:14.182Z,0
2023-01-08T07:38:20.689Z,0
2023-01-08T07:39:27.289Z,0
2023-01-08T07:40:33.678Z,0
2023-01-08T07:41:40.234Z,0
2023-01-08T07:42:46.685Z,0
2023-01-08T07:43:53.175Z,0
2023-01-08T07:44:59.676Z,0
2023-01-08T07:46:06.183Z,0
2023-01-08T07:47:12.705Z,0
2023-01-08T07:48:19.172Z,0
2023-01-08T07:49:25.674Z,0
2023-01-08T07:50:32.171Z,0
2023-01-08T07:51:38.909Z,0
2023-01-08T07:52:45.606Z,0
2023-01-08T07:53:52.321Z,0
2023-01-08T07:54:59.019Z,0
2023-01-08T07:56:05.724Z,0
2023-01-08T07:57:12.427Z,0
2023-01-08T07:58:19.136Z,0
2023-01-08T07:59:25.827Z,0
2023-01-08T08:00:32.529Z,0
2023-01-08T08:01:39.282Z,0
2023-01-08T08:02:45.934Z,0
2023-01-08T08:03:52.647Z,0
2023-01-08T08:04:59.356Z,0
2023-01-08T08:08:17.514Z,0
2023-01-08T08:09:53.333Z,0
2023-01-08T08:11:00.574Z,0
2023-01-08T08:12:38.618Z,0
2023-01-08T08:13:45.067Z,0
2023-01-08T08:14:51.640Z,0
2023-01-08T08:15:58.145Z,0
2023-01-08T08:17:04.569Z,0
2023-01-08T08:18:11.075Z,0
2023-01-08T08:19:17.552Z,0
2023-01-08T08:20:24.071Z,0
2023-01-08T08:21:30.553Z,0
2023-01-08T08:22:37.087Z,0
2023-01-08T08:23:43.561Z,0
2023-01-08T08:24:50.072Z,0
2023-01-08T08:25:56.558Z,0
2023-01-08T08:27:03.063Z,0
2023-01-08T08:28:09.634Z,0
2023-01-08T08:29:16.063Z,0
2023-01-08T08:30:22.656Z,0
2023-01-08T08:31:29.164Z,0
2023-01-08T08:32:35.552Z,0
2023-01-08T08:33:42.072Z,0
2023-01-08T08:34:48.615Z,0
2023-01-08T08:35:55.087Z,0
2023-01-08T08:37:01.602Z,0
2023-01-08T08:38:08.103Z,0
2023-01-08T08:39:14.548Z,0
2023-01-08T08:40:21.306Z,0
2023-01-08T08:41:27.988Z,0
2023-01-08T08:42:34.700Z,0
2023-01-08T08:43:41.389Z,0
2023-01-08T08:44:48.099Z,0
2023-01-08T08:45:54.807Z,0
2023-01-08T08:47:01.505Z,0
2023-01-08T08:48:08.200Z,0
2023-01-08T08:49:14.908Z,0
2023-01-08T08:50:21.661Z,0
2023-01-08T08:51:28.313Z,0
2023-01-08T08:52:35.009Z,0
2023-01-08T08:53:41.714Z,0
2023-01-08T08:54:48.925Z,0
2023-01-08T08:56:27.774Z,0
2023-01-08T08:58:14.583Z,0
2023-01-08T08:59:52.820Z,0
2023-01-08T09:00:59.514Z,0
2023-01-08T09:02:06.214Z,0
2023-01-08T09:03:12.928Z,0
2023-01-08T09:04:19.629Z,0
2023-01-08T09:05:26.325Z,0
2023-01-08T09:06:33.044Z,0
2023-01-08T09:07:39.734Z,0
2023-01-08T09:08:46.469Z,0
2023-01-08T09:09:53.135Z,0
2023-01-08T09:10:59.835Z,0
2023-01-08T09:12:06.544Z,0
2023-01-08T09:13:13.242Z,0
2023-01-08T09:14:19.955Z,0
2023-01-08T09:15:26.649Z,0
2023-01-08T09:16:33.365Z,0
2023-01-08T09:17:40.057Z,0
2023-01-08T09:18:46.761Z,0
2023-01-08T09:19:53.469Z,0
2023-01-08T09:21:00.165Z,0
2023-01-08T09:22:06.871Z,0
2023-01-08T09:23:13.575Z,0
2023-01-08T09:24:20.274Z,0
2023-01-08T09:25:26.984Z,0
2023-01-08T09:26:33.673Z,0
2023-01-08T09:28:07.480Z,0
2023-01-08T09:29:13.509Z,0
2023-01-08T09:30:19.786Z,0
2023-01-08T09:31:26.080Z,0
2023-01-08T09:32:32.484Z,0
2023-01-08T09:33:38.768Z,0
2023-01-08T09:34:45.203Z,0
2023-01-08T09:35:51.459Z,0
2023-01-08T09:36:57.821Z,0
2023-01-08T09:38:04.152Z,0
2023-01-08T09:39:10.531Z,0
2023-01-08T09:40:16.973Z,0
2023-01-08T09:41:23.196Z,0
2023-01-08T09:42:29.548Z,0
2023-01-08T09:43:35.901Z,0
2023-01-08T09:44:42.295Z,0
2023-01-08T09:45:48.593Z,0
2023-01-08T09:46:54.929Z,0
2023-01-08T09:48:01.277Z,0
2023-01-08T09:49:07.620Z,0
2023-01-08T09:50:13.970Z,0
2023-01-08T09:51:20.315Z,0
2023-01-08T09:52:26.671Z,0
2023-01-08T09:53:33.009Z,0
2023-01-08T09:54:39.364Z,0
2023-01-08T09:55:45.698Z,0
2023-01-08T09:56:52.206Z,0
2023-01-08T09:57:58.685Z,0
2023-01-08T09:59:05.231Z,0
2023-01-08T10:00:11.792Z,0
2023-01-08T10:01:18.185Z,0
2023-01-08T10:02:24.682Z,0
2023-01-08T10:03:31.175Z,0
2023-01-08T10:04:37.736Z,0
2023-01-08T10:05:44.182Z,0
2023-01-08T10:06:50.676Z,0
2023-01-08T10:07:57.187Z,0
2023-01-08T10:09:03.680Z,0
2023-01-08T10:10:10.180Z,0
2023-01-08T10:11:42.281Z,0
2023-01-08T10:12:48.988Z,0
2023-01-08T10:13:55.688Z,0
2023-01-08T10:15:02.387Z,0
2023-01-08T10:16:09.091Z,0
2023-01-08T10:17:15.795Z,0
2023-01-08T10:18:22.493Z,0
2023-01-08T10:19:29.230Z,0
2023-01-08T10:20:35.915Z,0
2023-01-08T10:21:42.610Z,0
2023-01-08T10:22:49.331Z,0
2023-01-08T10:23:56.025Z,0
2023-01-08T10:25:02.720Z,0
2023-01-08T10:28:20.916Z,0
2023-01-08T10:29:59.003Z,0
2023-01-08T10:31:05.401Z,0
2023-01-08T10:32:11.906Z,0
2023-01-08T10:33:18.390Z,0
2023-01-08T10:34:24.896Z,0
2023-01-08T10:35:31.405Z,0
2023-01-08T10:36:37.902Z,0
2023-01-08T10:37:44.399Z,0
2023-01-08T10:38:50.899Z,0
2023-01-08T10:39:57.424Z,0
2023-01-08T10:41:03.890Z,0
2023-01-08T10:42:10.457Z,0
2023-01-08T10:43:16.885Z,0
2023-01-08T10:44:23.389Z,0
2023-01-08T10:45:29.892Z,0
2023-01-08T10:46:36.389Z,0
2023-01-08T10:47:42.890Z,0
2023-01-08T10:48:49.391Z,0
2023-01-08T10:49:55.919Z,0
2023-01-08T10:51:02.392Z,0
2023-01-08T10:52:08.881Z,0
2023-01-08T10:53:15.423Z,0
2023-01-08T10:54:21.890Z,0
2023-01-08T10:55:28.378Z,0
2023-01-08T10:56:34.881Z,0
2023-01-08T10:57:41.633Z,0
2023-01-08T10:58:48.335Z,0
2023-01-08T10:59:55.030Z,0
2023-01-08T11:01:01.731Z,0
2023-01-08T11:02:08.423Z,0
2023-01-08T11:03:15.140Z,0
2023-01-08T11:04:21.833Z,0
2023-01-08T11:05:28.535Z,0
2023-01-08T11:06:35.249Z,0
2023-01-08T11:07:41.939Z,0
2023-01-08T11:08:48.644Z,0
2023-01-08T11:09:55.344Z,0
2023-01-08T11:11:02.048Z,0
2023-01-08T11:14:20.224Z,0
2023-01-08T11:15:58.471Z,0
2023-01-08T11:17:05.186Z,0
2023-01-08T11:18:11.855Z,0
2023-01-08T11:19:18.555Z,0
2023-01-08T11:20:25.260Z,0
2023-01-08T11:21:31.987Z,0
2023-01-08T11:22:38.690Z,0
2023-01-08T11:23:45.423Z,0
2023-01-08T11:24:52.104Z,0
2023-01-08T11:25:58.924Z,0
2023-01-08T11:27:05.485Z,0
2023-01-08T11:28:12.167Z,0
2023-01-08T12:26:17.756Z,0
2023-01-08T12:27:26.039Z,444
2023-01-08T12:30:43.475Z,433
2023-01-08T12:34:00.897Z,360
2023-01-08T12:37:18.230Z,286
2023-01-08T12:40:35.629Z,343
2023-01-08T12:43:53.043Z,483
2023-01-08T12:47:10.474Z,270
2023-01-08T12:50:27.927Z,258
2023-01-08T12:53:45.340Z,174
2023-01-08T12:57:02.745Z,196
2023-01-08T12:59:11.737Z,163
2023-01-08T13:00:20.151Z,157
2023-01-08T13:03:37.570Z,191
2023-01-08T13:06:54.999Z,140
2023-01-08T13:10:12.518Z,123
2023-01-08T13:13:29.782Z,163
2023-01-08T13:16:47.197Z,118
2023-01-08T13:20:04.596Z,101
2023-01-08T13:23:22.020Z,84
2023-01-08T13:26:39.450Z,50
2023-01-08T13:29:55.026Z,61
2023-01-08T13:31:01.372Z,39
2023-01-08T13:32:07.734Z,16
2023-01-08T13:34:20.474Z,28
2023-01-08T13:35:26.834Z,28
2023-01-08T13:36:33.190Z,28
2023-01-08T13:37:39.553Z,33
2023-01-08T13:38:46.019Z,33
2023-01-08T13:39:52.378Z,33
2023-01-08T13:40:58.781Z,45
2023-01-08T13:42:05.192Z,56
2023-01-08T13:43:11.598Z,78
2023-01-08T13:44:18.035Z,106
2023-01-08T13:45:24.391Z,174
2023-01-08T13:46:30.758Z,258
2023-01-08T13:47:37.114Z,320
2023-01-08T13:48:43.470Z,348
2023-01-08T13:50:56.203Z,360
2023-01-08T13:52:02.573Z,348
2023-01-08T13:53:08.954Z,343
2023-01-08T13:54:15.304Z,371
2023-01-08T13:55:21.667Z,382
2023-01-08T13:56:28.022Z,360
2023-01-08T13:57:34.521Z,348
2023-01-08T13:58:41.003Z,309
2023-01-08T13:59:47.485Z,281
2023-01-08T14:00:54.024Z,253
2023-01-08T14:02:00.501Z,225
2023-01-08T14:03:06.987Z,202
2023-01-08T14:04:13.481Z,191
2023-01-08T14:05:19.960Z,180
2023-01-08T14:06:26.472Z,180
2023-01-08T14:07:33.006Z,174
2023-01-08T14:08:39.492Z,174
2023-01-08T14:09:45.981Z,168
2023-01-08T14:10:52.468Z,168
2023-01-08T14:12:25.809Z,163
2023-01-08T14:13:32.549Z,163
2023-01-08T14:14:39.252Z,163
2023-01-08T14:15:45.972Z,157
2023-01-08T14:16:52.678Z,151
2023-01-08T14:17:59.416Z,151
2023-01-08T14:19:06.143Z,151
2023-01-08T14:20:12.850Z,151
2023-01-08T14:21:19.572Z,146
2023-01-08T14:22:26.319Z,146
2023-01-08T14:23:33.023Z,146
2023-01-08T14:24:39.726Z,140
2023-01-08T14:25:46.448Z,140
2023-01-08T14:29:04.612Z,140
2023-01-08T14:30:43.320Z,135
2023-01-08T14:32:22.011Z,135
2023-01-08T14:33:29.207Z,129
2023-01-08T14:34:36.434Z,129
2023-01-08T14:36:15.122Z,123
2023-01-08T14:37:53.873Z,123
2023-01-08T14:39:32.550Z,123
2023-01-08T14:41:11.260Z,118
2023-01-08T14:42:49.987Z,118
2023-01-08T14:44:28.683Z,112
2023-01-08T14:46:07.401Z,112
2023-01-08T14:47:46.108Z,106
2023-01-08T14:49:57.218Z,106
2023-01-08T14:51:52.374Z,101
2023-01-08T14:52:58.942Z,95
2023-01-08T14:54:05.430Z,95
2023-01-08T14:55:11.944Z,90
2023-01-08T14:57:25.182Z,90
2023-01-08T14:58:31.620Z,84
2023-01-08T14:59:38.157Z,84
2023-01-08T15:00:44.673Z,84
2023-01-08T15:01:51.196Z,78
2023-01-08T15:02:57.730Z,78
2023-01-08T15:04:04.267Z,78
2023-01-08T15:05:10.793Z,73
2023-01-08T15:06:17.318Z,73
2023-01-08T15:07:23.845Z,67
2023-01-08T15:08:30.433Z,67
2023-01-08T15:09:36.904Z,61
2023-01-08T15:10:43.476Z,61
2023-01-08T15:11:49.936Z,56
2023-01-08T15:12:56.453Z,56
2023-01-08T15:14:02.981Z,50
2023-01-08T15:15:09.509Z,50
2023-01-08T15:16:16.058Z,50
2023-01-08T15:17:22.609Z,45
2023-01-08T15:18:29.174Z,45
2023-01-08T15:19:35.935Z,39
2023-01-08T15:20:42.689Z,39
2023-01-08T15:21:49.505Z,39
2023-01-08T15:22:56.241Z,33
2023-01-08T15:24:02.991Z,33
2023-01-08T15:25:09.753Z,33
2023-01-08T15:26:16.508Z,28
2023-01-08T15:27:23.264Z,28
2023-01-08T15:28:30.084Z,28
2023-01-08T15:29:36.848Z,28
2023-01-08T15:30:43.552Z,22
2023-01-08T15:31:50.325Z,22
2023-01-08T15:32:57.081Z,22
2023-01-08T15:35:36.306Z,16
2023-01-08T15:37:15.029Z,16
2023-01-08T15:38:53.763Z,16
2023-01-08T15:40:32.558Z,11
2023-01-08T15:41:39.733Z,11
2023-01-08T15:42:46.981Z,11
2023-01-08T15:44:25.719Z,5
2023-01-08T15:46:03.648Z,5
2023-01-08T15:47:09.985Z,5
2023-01-08T15:48:16.402Z,5
2023-01-08T15:49:22.782Z,5
2023-01-08T15:50:29.162Z,5
2023-01-08T15:51:35.634Z,0
2023-01-08T15:52:42.029Z,0
2023-01-08T15:53:48.468Z,0
2023-01-08T15:54:54.889Z,0
2023-01-08T15:56:01.343Z,0
2023-01-08T15:57:07.757Z,0
2023-01-08T15:58:14.177Z,0
2023-01-08T15:59:20.600Z,0
2023-01-08T16:00:27.075Z,0
2023-01-08T16:01:33.451Z,0
2023-01-08T16:02:39.884Z,0
2023-01-08T16:03:46.308Z,0
2023-01-08T16:04:52.740Z,0
2023-01-08T16:05:59.168Z,0
2023-01-08T16:07:05.594Z,0
2023-01-08T16:08:12.029Z,0
2023-01-08T16:09:18.477Z,0
2023-01-08T16:10:24.871Z,0
2023-01-08T16:11:31.291Z,0
2023-01-08T16:12:37.704Z,0
2023-01-08T16:13:44.274Z,0
2023-01-08T16:14:50.824Z,0
2023-01-08T16:15:57.361Z,0
2023-01-08T16:17:03.914Z,0
2023-01-08T16:18:10.449Z,0
2023-01-08T16:19:16.986Z,0
2023-01-08T16:20:23.535Z,0
2023-01-08T16:21:30.140Z,0
2023-01-08T16:22:36.630Z,0
2023-01-08T16:23:43.173Z,0
2023-01-08T16:24:49.709Z,0
2023-01-08T16:25:56.255Z,0
2023-01-08T16:27:02.912Z,0
2023-01-08T16:28:36.042Z,0
2023-01-08T16:29:42.871Z,0
2023-01-08T16:30:49.600Z,0
2023-01-08T16:31:56.389Z,0
2023-01-08T16:33:03.175Z,0
2023-01-08T16:34:09.961Z,0
2023-01-08T16:35:16.723Z,0
2023-01-08T16:36:23.504Z,0
2023-01-08T16:37:30.284Z,0
2023-01-08T16:38:37.097Z,0
2023-01-08T16:39:43.846Z,0
2023-01-08T16:40:50.624Z,0
2023-01-08T16:41:57.411Z,0
2023-01-08T16:45:15.615Z,0
2023-01-08T16:46:53.866Z,0
2023-01-08T16:48:00.650Z,0
2023-01-08T16:49:07.444Z,0
2023-01-08T16:50:14.210Z,0
2023-01-08T16:51:20.992Z,0
2023-01-08T16:52:27.781Z,0
2023-01-08T16:53:34.552Z,0
2023-01-08T16:54:41.349Z,0
2023-01-08T16:55:48.128Z,0
2023-01-08T16:56:54.932Z,0
2023-01-08T16:58:01.691Z,0
2023-01-08T16:59:08.465Z,0
2023-01-08T17:00:15.258Z,0
2023-01-08T17:01:22.047Z,0
2023-01-08T17:02:28.881Z,0
2023-01-08T17:03:35.645Z,0
2023-01-08T17:04:42.400Z,0
2023-01-08T17:05:49.188Z,0
2023-01-08T17:06:55.979Z,0
2023-01-08T17:08:02.795Z,0
2023-01-08T17:09:09.525Z,0
2023-01-08T17:10:16.319Z,0
2023-01-08T17:11:23.086Z,0
2023-01-08T17:12:29.987Z,0
2023-01-08T17:13:36.705Z,0
2023-01-08T17:15:49.007Z,0
2023-01-08T17:16:55.277Z,0
2023-01-08T17:18:02.067Z,0
2023-01-08T17:19:08.853Z,0
2023-01-08T17:20:15.636Z,0
2023-01-08T17:21:22.425Z,0
2023-01-08T17:22:29.220Z,0
2023-01-08T17:23:35.973Z,0
2023-01-08T17:24:42.758Z,0
2023-01-08T17:25:49.552Z,0
2023-01-08T17:26:56.420Z,0
2023-01-08T17:28:03.102Z,0
2023-01-08T17:29:09.887Z,0
2023-01-08T17:30:16.664Z,0
2023-01-08T17:31:23.447Z,0
2023-01-08T17:32:30.283Z,0
2023-01-08T17:33:37.023Z,0
2023-01-08T17:34:43.797Z,0
2023-01-08T17:35:50.591Z,0
2023-01-08T17:36:57.371Z,0
2023-01-08T17:38:04.149Z,0
2023-01-08T17:39:10.939Z,0
2023-01-08T17:40:17.824Z,0
2023-01-08T17:41:24.504Z,0
2023-01-08T17:42:31.279Z,0
2023-01-08T17:43:38.070Z,0
2023-01-08T17:44:45.310Z,0
2023-01-08T17:46:23.507Z,0
2023-01-08T17:47:30.443Z,0
2023-01-08T17:48:37.124Z,0
2023-01-08T17:49:43.847Z,0
2023-01-08T17:50:50.709Z,0
2023-01-08T17:51:57.625Z,0
2023-01-08T17:53:04.241Z,0
2023-01-08T17:54:10.973Z,0
2023-01-08T17:55:17.876Z,0
2023-01-08T17:56:24.557Z,0
2023-01-08T17:57:31.350Z,0
2023-01-08T17:58:38.231Z,0
2023-01-08T17:59:44.927Z,0
2023-01-08T18:00:51.684Z,0
2023-01-08T18:01:58.471Z,0
2023-01-08T18:03:05.247Z,0
2023-01-08T18:04:12.032Z,0
2023-01-08T18:05:18.821Z,0
2023-01-08T18:06:25.602Z,0
2023-01-08T18:07:32.388Z,0
2023-01-08T18:08:39.178Z,0
2023-01-08T18:09:45.954Z,0
2023-01-08T18:10:52.756Z,0
2023-01-08T18:11:59.522Z,0
2023-01-08T18:13:06.296Z,0
2023-01-08T18:15:18.545Z,0
2023-01-08T18:16:24.889Z,0
2023-01-08T18:17:31.667Z,0
2023-01-08T18:18:38.455Z,0
2023-01-08T18:19:45.305Z,0
2023-01-08T18:20:52.018Z,0
2023-01-08T18:21:58.888Z,0
2023-01-08T18:23:05.637Z,0
2023-01-08T18:24:12.367Z,0
2023-01-08T18:25:19.151Z,0
2023-01-08T18:26:25.929Z,0
2023-01-08T18:27:32.694Z,0
2023-01-08T18:28:39.472Z,0
2023-01-08T18:29:46.313Z,0
2023-01-08T18:30:53.043Z,0
2023-01-08T18:31:59.872Z,0
2023-01-08T18:33:06.624Z,0
2023-01-08T18:34:13.407Z,0
2023-01-08T18:35:20.170Z,0
2023-01-08T18:36:26.951Z,0
2023-01-08T18:37:33.739Z,0
2023-01-08T18:38:40.542Z,0
2023-01-08T18:39:47.313Z,0
2023-01-08T18:40:54.105Z,0
2023-01-08T18:42:00.877Z,0
2023-01-08T18:43:07.671Z,0
2023-01-08T18:44:41.018Z,0
2023-01-08T18:46:19.101Z,0
2023-01-08T18:47:25.934Z,0
2023-01-08T18:48:32.652Z,0
2023-01-08T18:49:39.415Z,0
2023-01-08T18:50:46.200Z,0
2023-01-08T18:51:53.037Z,0